Les articles d'ExpertMaritime.pro


Votre expert maritime indépendant Xavier Braive est disponible sur la zone de Meschers-sur-Gironde - Port de Meschers - 17132

(Charente-Maritime - Poitou-Charentes)


Voir plan
Situation :

Le Port de Meschers, situé sur la rive droite de la Gironde près de son embouchure, est abrité par tous temps.

Il comprend :

- Un avant-chenal de 250 m de long, large de 8 m qui fait un angle de 8° W avec le Nord vrai, creusé à la cote + 0,50 m ; le vieux havre d’échouage ou « chenal » équipé de quai, cales en 1861.

- Un bassin d’échouage créé 1985 de 121 places sur pontons flottants, creuse à la cote + 1 m.

- Un bassin à flot mis en service en 1990, de 121 places à l’origine, 116 aujourd’hui (on y a placé des bateaux plus grands que prévu), en arrière d’une porte-écluse, T.E. 2,50 m ; le seuil de l’écluse est à la cote + 2 m ; les portes ouvrent quand la mer atteint le niveau + 3,50 m, avec 1,50 m d’eau sur le seuil (les cotes se réfèrent au niveau 0 des cartes marines).
Lat. 45° 33?, 3 N – Long. 00° 56?, 6 W ; carte SHOM 7029.
Distances : LE VERDON : 3,5 M. – ROYAN : 5 M. – PAUILLAC : 23 M. – BORDEAUX : 48 M.

- Une zone de mouillage, ouverte d’Avril à Septembre, de 22 corps morts, sur les vases à l’est du chenal d’accès.

Pratique :

Ville de Meschers : Location des anneaux.
Capitainerie, Tél.: 05.46.02.56.89 – VHF canal 9 –
n° de Fax 05 46 02 34 77 - GSM 06 15 11 23 10
Monsieur KERDUDOU est le capitaine assermenté du port.

SAUVETAGE :
CROSS ETEL, Tél.: O2 .97.553.535.
De juin à septembre Poste de Secours – Plage des Nonnes,
Tél. : 05.46.02.72.92, situé à 1 mille au nord du Port.
Météo affichée à la Capitainerie.
Météo locale sur la zone Port de Meschers
Heure (UTC) Dir.Vent Vit.Vent (nds) Force (Bft) T°min T°max P (mb) Hum.Rel.
05/10/2022 - 12:00:00 au 05/10/2022 - 15:00:00 278° (W) 10 3 20°C 21°C 1021 60 %
05/10/2022 - 15:00:00 au 05/10/2022 - 18:00:00 295° (WNW) 7 3 17°C 18°C 1024 80 %
05/10/2022 - 18:00:00 au 05/10/2022 - 21:00:00 311° (NW) 9 3 17°C 17°C 1027 92 %
05/10/2022 - 21:00:00 au 06/10/2022 - 00:00:00 355° (N) 11 4 17°C 17°C 1029 81 %
06/10/2022 - 00:00:00 au 06/10/2022 - 03:00:00 020° (NNE) 11 4 15°C 15°C 1030 85 %
06/10/2022 - 03:00:00 au 06/10/2022 - 06:00:00 032° (NNE) 11 4 14°C 14°C 1031 75 %
06/10/2022 - 06:00:00 au 06/10/2022 - 09:00:00 047° (NE) 11 4 16°C 16°C 1031 57 %
06/10/2022 - 09:00:00 au 06/10/2022 - 12:00:00 042° (NE) 10 3 20°C 20°C 1030 45 %
06/10/2022 - 12:00:00 au 06/10/2022 - 15:00:00 048° (NE) 9 3 21°C 21°C 1028 40 %
06/10/2022 - 15:00:00 au 06/10/2022 - 18:00:00 042° (NE) 8 3 18°C 18°C 1028 47 %
06/10/2022 - 18:00:00 au 06/10/2022 - 21:00:00 050° (NE) 8 3 16°C 16°C 1027 55 %
06/10/2022 - 21:00:00 au 07/10/2022 - 00:00:00 054° (NE) 7 3 15°C 15°C 1026 65 %
07/10/2022 - 00:00:00 au 07/10/2022 - 03:00:00 053° (NE) 6 2 14°C 14°C 1024 72 %
07/10/2022 - 03:00:00 au 07/10/2022 - 06:00:00 061° (ENE) 5 2 14°C 14°C 1024 75 %
07/10/2022 - 06:00:00 au 07/10/2022 - 09:00:00 080° (E) 4 2 18°C 18°C 1024 64 %
07/10/2022 - 09:00:00 au 07/10/2022 - 12:00:00 299° (WNW) 3 1 22°C 22°C 1022 54 %
07/10/2022 - 12:00:00 au 07/10/2022 - 15:00:00 310° (NW) 8 3 21°C 21°C 1021 57 %
07/10/2022 - 15:00:00 au 07/10/2022 - 18:00:00 338° (NNW) 9 3 17°C 17°C 1022 65 %
07/10/2022 - 18:00:00 au 07/10/2022 - 21:00:00 357° (N) 8 3 16°C 16°C 1022 61 %
07/10/2022 - 21:00:00 au 08/10/2022 - 00:00:00 009° (N) 9 3 15°C 15°C 1023 52 %
08/10/2022 - 00:00:00 au 08/10/2022 - 03:00:00 013° (NNE) 8 3 14°C 14°C 1023 51 %
08/10/2022 - 03:00:00 au 08/10/2022 - 06:00:00 031° (NNE) 8 3 13°C 13°C 1023 56 %
08/10/2022 - 06:00:00 au 08/10/2022 - 09:00:00 037° (NE) 10 3 17°C 17°C 1024 45 %
08/10/2022 - 09:00:00 au 08/10/2022 - 12:00:00 040° (NE) 8 3 21°C 21°C 1023 35 %
08/10/2022 - 12:00:00 au 08/10/2022 - 15:00:00 047° (NE) 7 3 22°C 22°C 1021 33 %
08/10/2022 - 15:00:00 au 08/10/2022 - 18:00:00 051° (NE) 8 3 18°C 18°C 1021 47 %
08/10/2022 - 18:00:00 au 08/10/2022 - 21:00:00 067° (ENE) 10 3 15°C 15°C 1021 57 %
08/10/2022 - 21:00:00 au 09/10/2022 - 00:00:00 087° (E) 8 3 13°C 13°C 1019 65 %
09/10/2022 - 00:00:00 au 09/10/2022 - 03:00:00 104° (ESE) 7 3 13°C 13°C 1017 69 %
09/10/2022 - 03:00:00 au 09/10/2022 - 06:00:00 119° (ESE) 7 3 14°C 14°C 1016 73 %
09/10/2022 - 06:00:00 au 09/10/2022 - 09:00:00 145° (SE) 9 3 19°C 19°C 1015 61 %
09/10/2022 - 09:00:00 au 09/10/2022 - 12:00:00 172° (S) 9 3 24°C 24°C 1014 51 %
09/10/2022 - 12:00:00 au 09/10/2022 - 15:00:00 241° (WSW) 9 3 23°C 23°C 1013 56 %
09/10/2022 - 15:00:00 au 09/10/2022 - 18:00:00 260° (W) 6 2 18°C 18°C 1014 84 %
09/10/2022 - 18:00:00 au 09/10/2022 - 21:00:00 214° (SW) 4 2 18°C 18°C 1014 85 %
09/10/2022 - 21:00:00 au 10/10/2022 - 00:00:00 195° (SSW) 3 1 17°C 17°C 1014 89 %
10/10/2022 - 00:00:00 au 10/10/2022 - 03:00:00 163° (SSE) 4 2 16°C 16°C 1015 92 %
10/10/2022 - 03:00:00 au 10/10/2022 - 06:00:00 121° (ESE) 6 2 16°C 16°C 1015 95 %
10/10/2022 - 06:00:00 au 10/10/2022 - 09:00:00 155° (SSE) 5 2 18°C 18°C 1016 87 %
10/10/2022 - 09:00:00 au 10/10/2022 - 12:00:00 145° (SE) 6 2 20°C 20°C 1017 76 %
openweathermap
Ces informations sont partiellement extraites de Wikipedia, et des sites pertinents pour cette zone. Compilation d'informations de Xavier Braive.
Xavier Braive, Expert Maritime Plaisance se déplace sur Port de Meschers, Meschers-sur-Gironde, 17132, Charente-Maritime

Welcome to Cross-Channel yachtmen !

we can deliver survey reports in english, in case of dammage or prior to buy / sell a boat in France (pre-purchase survey), and more specifically on the Atlantic coast.

Uw onafhankelijk jachtexpert

verkrijkbaar op de Atlantische kust, bij aankoop of reparatie van jachten (metaal, polyester of composiet). Rapporten in Nederlands

BRAIVE, Xavier
Xavier Braive
Expert Maritime
Nouvelle Aquitaine
France
07 64 82 25 44